Time;durP1;ratioP1;P1;durP2;ratioP2;P2;SDS_P1;SDS_P2;PMS_P1;PMS_P2;Temp;Humidity;BMP_temperature;BMP_pressure;BME280_temperature;BME280_humidity;BME280_pressure;Samples;Min_cycle;Max_cycle;Signal;HPM_P1;HPM_P2
2021/12/22 00:04:13;;;;;;;10.65;5.95;;;;;;;20.57;nan;101320.25;20412673;28;104203;-56
2021/12/22 00:14:13;;;;;;;10.63;5.75;;;;;;;20.53;nan;101325.78;20411210;28;100996;-56
2021/12/22 00:24:14;;;;;;;10.02;5.90;;;;;;;20.48;nan;101333.94;20389061;28;100627;-56
2021/12/22 00:34:17;;;;;;;9.68;5.65;;;;;;;20.44;nan;101354.31;20403302;28;102735;-58
2021/12/22 00:44:17;;;;;;;10.15;5.25;;;;;;;20.43;nan;101359.69;20408241;28;100799;-55
2021/12/22 00:54:18;;;;;;;9.88;5.13;;;;;;;20.39;nan;101363.44;20410268;28;102492;-56
2021/12/22 01:04:18;;;;;;;7.78;4.88;;;;;;;20.36;nan;101369.75;20413228;28;102138;-56
2021/12/22 01:14:21;;;;;;;8.35;4.53;;;;;;;20.32;nan;101373.47;20413283;28;99915;-56
2021/12/22 01:24:29;;;;;;;8.37;4.43;;;;;;;20.31;nan;101390.16;20408119;28;105003;-57
2021/12/22 01:34:30;;;;;;;7.93;4.75;;;;;;;20.27;nan;101386.03;20410590;28;101582;-57
2021/12/22 01:44:48;;;;;;;6.68;4.40;;;;;;;20.23;nan;101381.91;20404465;28;101452;-57
2021/12/22 01:55:13;;;;;;;7.32;4.53;;;;;;;20.21;nan;101374.06;20404134;28;100532;-57
2021/12/22 02:05:14;;;;;;;7.05;4.45;;;;;;;20.16;nan;101389.28;20402326;28;103952;-56
2021/12/22 02:15:15;;;;;;;6.72;4.40;;;;;;;20.12;nan;101387.78;20403152;28;105209;-56
2021/12/22 02:25:20;;;;;;;7.40;4.30;;;;;;;20.09;nan;101383.53;20405308;28;98313;-56
2021/12/22 02:35:37;;;;;;;5.72;3.97;;;;;;;20.08;nan;101388.88;20403079;28;99321;-56
2021/12/22 02:45:38;;;;;;;5.50;3.50;;;;;;;20.05;nan;101384.63;20404290;28;100891;-57
2021/12/22 03:05:46;;;;;;;6.28;3.72;;;;;;;20.05;nan;101399.56;20404126;28;97528;-56
2021/12/22 03:15:47;;;;;;;4.65;3.47;;;;;;;20.04;nan;101403.97;20415115;28;98570;-56
2021/12/22 03:25:48;;;;;;;4.30;3.45;;;;;;;20.01;nan;101398.91;20416301;28;103989;-56
2021/12/22 03:35:49;;;;;;;4.45;3.20;;;;;;;20.02;nan;101423.38;20411802;28;101953;-55
2021/12/22 03:45:49;;;;;;;5.20;3.17;;;;;;;20.00;nan;101407.72;20410984;28;100256;-56
2021/12/22 03:55:50;;;;;;;3.95;2.95;;;;;;;20.00;nan;101419.06;20412869;28;101313;-56
2021/12/22 04:05:55;;;;;;;5.03;3.25;;;;;;;20.00;nan;101437.47;20413086;28;101080;-57
2021/12/22 04:15:55;;;;;;;5.38;3.28;;;;;;;19.99;nan;101419.16;20411562;28;106892;-57
2021/12/22 04:25:56;;;;;;;4.32;3.13;;;;;;;19.99;nan;101422.66;20413093;28;100649;-57
2021/12/22 04:35:57;;;;;;;4.32;2.75;;;;;;;19.97;nan;101423.69;20409454;28;100213;-57
2021/12/22 04:45:58;;;;;;;3.58;2.65;;;;;;;19.96;nan;101440.38;20411577;28;100782;-57
2021/12/22 04:55:59;;;;;;;5.32;2.95;;;;;;;19.96;nan;101454.34;20416114;28;99514;-58
2021/12/22 05:05:59;;;;;;;3.58;2.78;;;;;;;19.94;nan;101450.94;20405900;28;101550;-56
2021/12/22 05:16:00;;;;;;;3.50;2.78;;;;;;;20.00;nan;101449.78;20407797;28;100353;-56
2021/12/22 05:26:01;;;;;;;3.97;2.53;;;;;;;20.14;nan;101449.00;20412266;28;98150;-56
2021/12/22 05:36:02;;;;;;;12.68;2.80;;;;;;;20.34;nan;101447.03;20405630;28;99430;-57
2021/12/22 05:46:04;;;;;;;3.85;2.50;;;;;;;20.46;nan;101464.75;20402865;28;99482;-57
2021/12/22 05:56:05;;;;;;;8.02;2.70;;;;;;;20.56;nan;101472.97;20392647;28;102170;-56
2021/12/22 06:06:05;;;;;;;3.70;2.45;;;;;;;20.60;nan;101493.75;20398503;28;106048;-57
2021/12/22 06:16:09;;;;;;;7.75;2.70;;;;;;;20.72;nan;101500.09;20400833;28;101796;-58
2021/12/22 06:26:09;;;;;;;7.38;3.83;;;;;;;20.57;nan;101506.25;20411025;28;101925;-57
2021/12/22 06:36:11;;;;;;;4.28;2.60;;;;;;;20.62;nan;101519.97;20386574;28;100792;-56
2021/12/22 06:46:13;;;;;;;7.25;2.55;;;;;;;20.70;nan;101541.44;20405029;28;102385;-58
2021/12/22 06:56:14;;;;;;;4.30;2.38;;;;;;;20.73;nan;101545.72;20404847;28;100796;-59
2021/12/22 07:06:16;;;;;;;5.50;2.80;;;;;;;20.73;nan;101535.19;20407166;28;100572;-58
2021/12/22 07:16:18;;;;;;;3.25;2.40;;;;;;;20.82;nan;101544.34;20415207;28;102191;-57
2021/12/22 07:26:18;;;;;;;3.53;2.30;;;;;;;20.88;nan;101544.81;20405661;28;102180;-58
2021/12/22 07:36:19;;;;;;;8.10;2.42;;;;;;;20.92;nan;101561.28;20405603;28;99130;-57
2021/12/22 07:46:21;;;;;;;4.63;2.78;;;;;;;20.96;nan;101568.09;20402341;28;101433;-58
2021/12/22 07:56:22;;;;;;;6.57;4.55;;;;;;;20.98;nan;101571.47;20403502;28;100103;-58
2021/12/22 08:06:22;;;;;;;10.38;3.25;;;;;;;21.15;nan;101581.03;20392548;28;102950;-58
2021/12/22 08:16:24;;;;;;;4.97;3.25;;;;;;;21.30;nan;101592.47;20396735;28;99402;-58
2021/12/22 08:26:24;;;;;;;5.75;3.50;;;;;;;21.32;nan;101595.84;20404179;28;101525;-57
2021/12/22 08:46:49;;;;;;;5.82;4.45;;;;;;;21.31;nan;101609.09;20454625;28;100355;-56
2021/12/22 08:56:49;;;;;;;8.48;6.00;;;;;;;21.31;nan;101623.13;20423766;28;102333;-57
2021/12/22 09:06:52;;;;;;;7.18;5.07;;;;;;;21.26;nan;101628.69;20433023;28;98704;-57
2021/12/22 09:16:53;;;;;;;6.63;4.27;;;;;;;21.27;nan;101622.44;20440288;28;101597;-57
2021/12/22 09:26:54;;;;;;;6.72;4.40;;;;;;;21.30;nan;101623.22;20424175;28;100696;-57
2021/12/22 09:36:55;;;;;;;7.35;4.53;;;;;;;21.28;nan;101624.16;20425212;28;98584;-57
2021/12/22 09:46:55;;;;;;;7.28;4.30;;;;;;;21.27;nan;101626.88;20417724;28;100062;-57
2021/12/22 09:56:56;;;;;;;7.53;4.35;;;;;;;21.28;nan;101610.97;20413833;28;100734;-56
2021/12/22 10:06:57;;;;;;;5.90;4.40;;;;;;;21.23;nan;101618.31;20402618;28;104039;-59
2021/12/22 10:16:58;;;;;;;6.88;4.78;;;;;;;21.26;nan;101606.75;20421800;28;102970;-57
2021/12/22 10:27:05;;;;;;;8.82;4.43;;;;;;;21.22;nan;101613.97;20435860;28;101569;-58
2021/12/22 10:37:05;;;;;;;5.70;3.97;;;;;;;21.21;nan;101604.38;20443267;28;97693;-58
2021/12/22 10:47:32;;;;;;;6.63;3.80;;;;;;;21.20;nan;101601.84;20435915;28;97548;-58
2021/12/22 10:57:37;;;;;;;4.63;4.05;;;;;;;21.19;nan;101595.72;20439564;28;98089;-58
2021/12/22 11:07:41;;;;;;;5.63;4.05;;;;;;;21.20;nan;101586.03;20442431;28;98526;-59
2021/12/22 11:17:42;;;;;;;6.32;3.78;;;;;;;21.22;nan;101576.25;20437538;28;102247;-57
2021/12/22 11:27:43;;;;;;;9.40;4.00;;;;;;;21.20;nan;101575.50;20435628;28;102916;-57
2021/12/22 11:37:44;;;;;;;11.60;4.32;;;;;;;21.15;nan;101559.94;20436594;28;97708;-57
2021/12/22 11:47:50;;;;;;;7.07;3.40;;;;;;;21.13;nan;101561.84;20439852;28;97653;-57
2021/12/22 11:58:16;;;;;;;6.70;3.72;;;;;;;21.13;nan;101556.59;20437777;28;106047;-56
2021/12/22 12:08:18;;;;;;;11.10;3.75;;;;;;;21.03;nan;101548.38;20451918;28;100584;-56
2021/12/22 12:29:57;;;;;;;11.77;3.30;;;;;;;21.02;nan;101538.78;20393571;28;100803;-58
2021/12/22 12:39:58;;;;;;;6.03;3.20;;;;;;;21.22;nan;101534.94;20420243;28;102370;-59
2021/12/22 12:50:19;;;;;;;8.45;2.88;;;;;;;21.43;nan;101527.56;20425564;28;102582;-59
2021/12/22 13:00:23;;;;;;;7.20;3.15;;;;;;;21.57;nan;101534.66;20448063;28;100160;-58
2021/12/22 13:10:28;;;;;;;5.40;3.10;;;;;;;21.66;nan;101535.03;20423085;28;98539;-58
2021/12/22 13:20:34;;;;;;;6.57;2.63;;;;;;;21.71;nan;101527.69;20420542;28;103143;-57
2021/12/22 13:30:42;;;;;;;6.07;3.45;;;;;;;21.76;nan;101536.16;20430967;28;101760;-57
2021/12/22 13:41:21;;;;;;;5.95;3.55;;;;;;;21.67;nan;101532.28;20435618;28;102287;-57
2021/12/22 13:51:33;;;;;;;5.55;3.65;;;;;;;21.48;nan;101534.34;20427100;28;99830;-56
2021/12/22 14:01:34;;;;;;;;;;;;;;;21.42;nan;101536.41;20432542;28;98368;-57
2021/12/22 14:11:37;;;;;;;5.13;3.25;;;;;;;21.36;nan;101531.50;20423855;28;100422;-58
2021/12/22 14:21:38;;;;;;;5.60;3.10;;;;;;;21.32;nan;101529.97;20426053;28;102338;-57
2021/12/22 14:31:57;;;;;;;7.90;3.60;;;;;;;21.23;nan;101528.75;20424150;28;97674;-56
2021/12/22 14:41:59;;;;;;;6.90;3.70;;;;;;;21.09;nan;101526.94;20422728;28;102816;-57
2021/12/22 14:52:04;;;;;;;10.98;4.03;;;;;;;21.04;nan;101526.34;20421421;28;100868;-57
2021/12/22 15:02:05;;;;;;;12.50;3.80;;;;;;;20.98;nan;101528.50;20429758;28;98587;-58
2021/12/22 15:12:07;;;;;;;9.32;3.80;;;;;;;20.95;nan;101529.53;20424665;28;102078;-58
2021/12/22 15:22:07;;;;;;;9.95;3.80;;;;;;;20.95;nan;101530.38;20455570;28;97794;-58
2021/12/22 15:32:09;;;;;;;11.90;3.55;;;;;;;20.95;nan;101533.00;20424056;28;98284;-60
2021/12/22 15:42:09;;;;;;;9.20;4.22;;;;;;;20.97;nan;101532.06;20499461;28;98819;-58
2021/12/22 15:52:10;;;;;;;6.00;3.65;;;;;;;20.90;nan;101526.31;20427966;28;97513;-58
2021/12/22 16:02:10;;;;;;;8.63;4.05;;;;;;;20.88;nan;101538.72;20426752;28;102497;-59
2021/12/22 16:12:12;;;;;;;5.95;3.92;;;;;;;20.87;nan;101539.66;20446046;28;101801;-56
2021/12/22 16:22:12;;;;;;;8.38;3.80;;;;;;;20.91;nan;101554.31;20429922;28;102077;-57
2021/12/22 16:32:12;;;;;;;14.20;4.45;;;;;;;20.86;nan;101562.50;20444167;28;98656;-59
2021/12/22 16:42:13;;;;;;;13.10;4.38;;;;;;;20.77;nan;101569.13;20434857;28;98177;-59
2021/12/22 16:52:13;;;;;;;9.80;4.40;;;;;;;20.75;nan;101581.53;20432883;28;100878;-59
2021/12/22 17:02:21;;;;;;;11.32;4.20;;;;;;;20.72;nan;101583.50;20432650;28;98196;-58
2021/12/22 17:12:23;;;;;;;10.93;4.57;;;;;;;20.69;nan;101573.97;20442958;28;99843;-59
2021/12/22 17:22:23;;;;;;;8.82;4.22;;;;;;;20.68;nan;101577.53;20420627;28;99010;-57
2021/12/22 17:32:24;;;;;;;15.95;6.10;;;;;;;20.53;nan;101565.22;20425314;28;99483;-57
2021/12/22 17:42:24;;;;;;;14.35;5.47;;;;;;;20.75;nan;101570.16;20410893;28;99312;-59
2021/12/22 17:52:46;;;;;;;11.13;4.85;;;;;;;20.83;nan;101553.94;20442604;28;98041;-57
2021/12/22 18:02:48;;;;;;;16.15;5.05;;;;;;;20.94;nan;101559.41;20407481;28;99300;-58
2021/12/22 18:12:54;;;;;;;15.73;4.55;;;;;;;21.09;nan;101578.75;20408899;28;101032;-59
2021/12/22 18:22:56;;;;;;;12.07;4.97;;;;;;;21.22;nan;101573.63;20405196;28;98322;-58
2021/12/22 18:32:56;;;;;;;9.00;5.30;;;;;;;21.35;nan;101566.69;20455606;28;102274;-57
2021/12/22 18:42:59;;;;;;;10.07;5.32;;;;;;;21.49;nan;101562.38;20425161;28;99039;-58
2021/12/22 18:53:01;;;;;;;14.30;5.53;;;;;;;21.54;nan;101560.31;20450415;28;102759;-57
2021/12/22 19:03:01;;;;;;;9.63;5.15;;;;;;;21.56;nan;101555.81;20402850;28;101296;-57
2021/12/22 19:13:02;;;;;;;14.30;6.18;;;;;;;21.59;nan;101560.91;20402426;28;99004;-58
2021/12/22 19:23:05;;;;;;;14.52;5.75;;;;;;;21.55;nan;101551.47;20416895;28;102276;-58
2021/12/22 19:33:07;;;;;;;10.27;4.67;;;;;;;21.54;nan;101553.25;20433553;28;98629;-58
2021/12/22 19:43:09;;;;;;;10.47;5.50;;;;;;;21.48;nan;101553.59;20423577;28;98551;-59
2021/12/22 19:53:11;;;;;;;12.18;4.85;;;;;;;21.47;nan;101557.22;20458273;28;102049;-59
2021/12/22 20:03:12;;;;;;;10.30;5.43;;;;;;;21.45;nan;101564.34;20413885;28;97841;-59
2021/12/22 20:13:12;;;;;;;10.90;4.70;;;;;;;21.46;nan;101563.41;20418384;28;102816;-59
2021/12/22 20:23:14;;;;;;;8.98;4.95;;;;;;;21.41;nan;101544.38;20401021;28;107497;-59
2021/12/22 20:33:14;;;;;;;15.75;5.53;;;;;;;21.31;nan;101544.06;20398729;28;103405;-59
2021/12/22 20:43:21;;;;;;;9.00;5.65;;;;;;;21.22;nan;101544.66;20447685;28;102420;-59
2021/12/22 20:53:24;;;;;;;17.70;6.78;;;;;;;21.10;nan;101556.75;20452446;28;99574;-58
2021/12/22 21:03:25;;;;;;;13.10;7.03;;;;;;;21.07;nan;101543.78;20425889;28;99044;-59
2021/12/22 21:13:29;;;;;;;11.68;6.72;;;;;;;21.03;nan;101544.88;20410797;28;99691;-58
2021/12/22 21:23:31;;;;;;;11.88;6.68;;;;;;;20.98;nan;101531.13;20419019;28;97885;-59
2021/12/22 21:33:32;;;;;;;12.60;7.03;;;;;;;21.00;nan;101537.16;20428297;28;102526;-58
2021/12/22 21:43:34;;;;;;;10.50;6.15;;;;;;;20.93;nan;101532.25;20385306;28;100764;-60
2021/12/22 21:53:35;;;;;;;12.65;6.97;;;;;;;20.86;nan;101527.41;20380136;28;98907;-58
2021/12/22 22:03:35;;;;;;;15.65;6.82;;;;;;;20.84;nan;101516.16;20382258;28;101502;-57
2021/12/22 22:13:36;;;;;;;11.02;6.65;;;;;;;20.82;nan;101520.66;20396852;28;105944;-58
2021/12/22 22:23:37;;;;;;;9.65;6.70;;;;;;;20.77;nan;101508.59;20403337;28;102681;-58
2021/12/22 22:33:37;;;;;;;10.57;6.70;;;;;;;20.70;nan;101501.97;20428595;28;104527;-57
2021/12/22 22:43:38;;;;;;;11.57;6.75;;;;;;;20.67;nan;101501.31;20415929;28;102363;-57
2021/12/22 22:53:38;;;;;;;10.38;6.20;;;;;;;20.60;nan;101485.88;20406529;28;98637;-57
2021/12/22 23:03:38;;;;;;;10.98;7.07;;;;;;;20.57;nan;101477.28;20421133;28;98792;-59
2021/12/22 23:13:44;;;;;;;9.07;6.30;;;;;;;20.53;nan;101478.38;20402436;28;99284;-58
2021/12/22 23:23:46;;;;;;;13.48;6.57;;;;;;;20.48;nan;101482.16;20427300;28;103010;-57
2021/12/22 23:33:46;;;;;;;8.50;6.73;;;;;;;20.44;nan;101477.97;20420062;28;100072;-57
2021/12/22 23:54:06;;;;;;;10.43;7.10;;;;;;;20.36;nan;101472.31;20388195;28;102167;-57
